Time;durP1;ratioP1;P1;durP2;ratioP2;P2;SDS_P1;SDS_P2;PMS_P1;PMS_P2;Temp;Humidity;BMP_temperature;BMP_pressure;BME280_temperature;BME280_humidity;BME280_pressure;Samples;Min_cycle;Max_cycle;Signal;HPM_P1;HPM_P2
2023/03/19 00:01:41;;;;;;;22.90;20.20;;;10.80;99.90;;;;;;5021649;28;20049;-81
2023/03/19 00:04:07;;;;;;;23.35;20.75;;;10.70;99.90;;;;;;5028839;28;20037;-80
2023/03/19 00:06:33;;;;;;;23.63;21.15;;;10.60;99.90;;;;;;5020481;28;20046;-80
2023/03/19 00:08:59;;;;;;;24.60;21.33;;;10.60;99.90;;;;;;5029620;28;20127;-81
2023/03/19 00:11:25;;;;;;;22.70;20.27;;;10.60;99.90;;;;;;5023892;28;20049;-82
2023/03/19 00:13:50;;;;;;;23.55;21.00;;;10.60;99.90;;;;;;5037402;28;20091;-81
2023/03/19 00:16:16;;;;;;;23.85;21.33;;;10.60;99.90;;;;;;5020707;28;20067;-81
2023/03/19 00:18:42;;;;;;;23.75;20.30;;;10.50;99.90;;;;;;5024242;28;20120;-81
2023/03/19 00:21:08;;;;;;;25.10;21.80;;;10.60;99.90;;;;;;5022815;28;20045;-81
2023/03/19 00:23:35;;;;;;;24.35;21.17;;;10.60;99.90;;;;;;5021799;28;20118;-81
2023/03/19 00:26:02;;;;;;;24.17;20.33;;;10.50;99.90;;;;;;5024068;28;20489;-80
2023/03/19 00:28:29;;;;;;;22.92;20.42;;;10.50;99.90;;;;;;5020016;28;20441;-81
2023/03/19 00:30:55;;;;;;;24.63;20.83;;;10.60;99.90;;;;;;5040777;28;20045;-80
2023/03/19 00:33:20;;;;;;;24.65;20.95;;;10.60;99.90;;;;;;5018554;28;20060;-81
2023/03/19 00:35:46;;;;;;;23.67;20.75;;;10.50;99.90;;;;;;5043913;28;21548;-80
2023/03/19 00:38:12;;;;;;;24.58;21.92;;;10.50;99.90;;;;;;5021585;28;20052;-81
2023/03/19 00:40:38;;;;;;;24.30;21.70;;;10.50;99.90;;;;;;5023070;28;20052;-81
2023/03/19 00:43:04;;;;;;;24.30;20.88;;;10.50;99.90;;;;;;5038714;28;20064;-81
2023/03/19 00:45:29;;;;;;;24.45;21.85;;;10.50;99.90;;;;;;5029327;28;20045;-82
2023/03/19 00:47:58;;;;;;;24.20;21.70;;;10.50;99.90;;;;;;5021076;28;20053;-81
2023/03/19 00:50:25;;;;;;;24.60;21.95;;;10.50;99.90;;;;;;5037710;28;20042;-81
2023/03/19 00:52:51;;;;;;;22.35;20.02;;;10.50;99.90;;;;;;5018936;28;20056;-81
2023/03/19 00:55:17;;;;;;;23.58;19.58;;;10.50;99.90;;;;;;5021393;28;20060;-81
2023/03/19 00:57:43;;;;;;;23.65;20.98;;;10.50;99.90;;;;;;5019490;28;20481;-80
2023/03/19 01:00:10;;;;;;;22.42;19.23;;;10.60;99.90;;;;;;5022482;28;20060;-81
2023/03/19 01:02:36;;;;;;;20.75;18.55;;;10.60;99.90;;;;;;5003801;28;20683;-81
2023/03/19 01:05:02;;;;;;;21.40;17.80;;;10.60;99.90;;;;;;5040858;28;20037;-81
2023/03/19 01:07:27;;;;;;;19.17;16.75;;;10.60;99.90;;;;;;5020215;28;20087;-81
2023/03/19 01:09:53;;;;;;;18.77;16.38;;;10.60;99.90;;;;;;5011855;28;20049;-81
2023/03/19 01:12:19;;;;;;;16.38;14.63;;;10.70;99.90;;;;;;5019764;28;20061;-81
2023/03/19 01:14:44;;;;;;;17.95;15.70;;;10.70;99.90;;;;;;5019162;28;20054;-81
2023/03/19 01:17:10;;;;;;;18.88;15.00;;;10.70;99.90;;;;;;5040197;28;20494;-82
2023/03/19 01:19:36;;;;;;;17.83;15.93;;;10.70;99.90;;;;;;5024304;28;20042;-82
2023/03/19 01:22:03;;;;;;;17.98;15.52;;;10.70;99.90;;;;;;5027090;28;20504;-81
2023/03/19 01:24:32;;;;;;;17.77;15.65;;;10.70;99.90;;;;;;5021311;28;20102;-81
2023/03/19 01:26:58;;;;;;;18.42;15.52;;;10.60;99.90;;;;;;5011002;28;20057;-80
2023/03/19 01:29:24;;;;;;;20.10;17.05;;;10.70;99.90;;;;;;5040879;28;20054;-81
2023/03/19 01:31:50;;;;;;;18.20;16.23;;;10.70;99.90;;;;;;5043208;28;20053;-81
2023/03/19 01:34:15;;;;;;;19.23;16.70;;;10.70;99.90;;;;;;5039703;28;20490;-81
2023/03/19 01:36:41;;;;;;;18.67;16.38;;;10.70;99.90;;;;;;5043706;28;20052;-81
2023/03/19 01:39:07;;;;;;;19.27;16.77;;;10.70;99.90;;;;;;5021851;28;20056;-81
2023/03/19 01:41:33;;;;;;;19.55;17.40;;;10.70;99.90;;;;;;5023798;28;20493;-81
2023/03/19 01:43:58;;;;;;;21.48;17.17;;;10.70;99.90;;;;;;4991707;28;20095;-81
2023/03/19 01:46:29;;;;;;;18.55;16.55;;;10.70;99.90;;;;;;5026823;28;20130;-81
2023/03/19 01:49:00;;;;;;;18.73;16.73;;;10.70;99.90;;;;;;5040097;28;20042;-81
2023/03/19 01:51:30;;;;;;;19.17;17.17;;;10.70;99.90;;;;;;5007367;28;20053;-80
2023/03/19 01:53:59;;;;;;;19.90;17.13;;;10.70;99.90;;;;;;5042727;28;20381;-80
2023/03/19 01:56:34;;;;;;;19.75;17.65;;;10.70;99.90;;;;;;5025191;28;20049;-81
2023/03/19 01:59:22;;;;;;;19.13;17.00;;;10.70;99.90;;;;;;5044799;28;20045;-81
2023/03/19 02:01:58;;;;;;;20.23;17.33;;;10.70;99.90;;;;;;5024761;28;20073;-81
2023/03/19 02:04:26;;;;;;;19.17;16.98;;;10.70;99.90;;;;;;5024872;28;20120;-80
2023/03/19 02:06:55;;;;;;;21.73;18.13;;;10.70;99.90;;;;;;5025051;28;20045;-81
2023/03/19 02:09:21;;;;;;;19.00;16.35;;;10.70;99.90;;;;;;5022795;28;20457;-81
2023/03/19 02:11:46;;;;;;;19.92;15.73;;;10.60;99.90;;;;;;5009214;28;20067;-81
2023/03/19 02:14:12;;;;;;;19.05;17.05;;;10.60;99.90;;;;;;5004966;28;20046;-81
2023/03/19 02:16:38;;;;;;;18.38;15.98;;;10.60;99.90;;;;;;5010718;28;20076;-81
2023/03/19 02:19:09;;;;;;;18.17;16.30;;;10.50;99.90;;;;;;5022914;28;20072;-81
2023/03/19 02:21:35;;;;;;;16.10;13.70;;;10.50;99.90;;;;;;5036781;28;20060;-81
2023/03/19 02:24:37;;;;;;;18.70;16.65;;;10.50;99.90;;;;;;5022355;28;20455;-82
2023/03/19 02:27:06;;;;;;;20.42;16.42;;;10.50;99.90;;;;;;5022980;28;20051;-83
2023/03/19 02:29:32;;;;;;;19.20;16.75;;;10.40;99.90;;;;;;5023272;28;20195;-82
2023/03/19 02:31:58;;;;;;;19.02;16.45;;;10.50;99.90;;;;;;5020169;28;20071;-83
2023/03/19 02:34:24;;;;;;;19.95;16.52;;;10.50;99.90;;;;;;5021586;28;20064;-82
2023/03/19 02:36:59;;;;;;;19.70;17.60;;;10.40;99.90;;;;;;5024398;28;20060;-83
2023/03/19 02:39:34;;;;;;;23.02;19.00;;;10.40;99.90;;;;;;5004204;28;20107;-83
2023/03/19 02:42:02;;;;;;;18.65;16.25;;;10.30;99.90;;;;;;5014543;28;20451;-83
2023/03/19 02:44:28;;;;;;;19.60;15.02;;;10.30;99.90;;;;;;5041661;28;20049;-83
2023/03/19 02:46:53;;;;;;;16.40;14.50;;;10.30;99.90;;;;;;5022258;28;20496;-82
2023/03/19 02:49:19;;;;;;;18.55;14.20;;;10.20;99.90;;;;;;5023843;28;20053;-83
2023/03/19 02:51:45;;;;;;;15.82;12.52;;;10.20;99.90;;;;;;5040244;28;20081;-82
2023/03/19 02:54:11;;;;;;;14.07;11.68;;;10.20;99.90;;;;;;4992144;28;20053;-81
2023/03/19 02:56:36;;;;;;;16.00;13.05;;;10.20;99.90;;;;;;5041864;28;20084;-83
2023/03/19 02:59:03;;;;;;;14.63;12.02;;;10.20;99.90;;;;;;5021658;28;20470;-83
2023/03/19 03:01:28;;;;;;;14.52;12.05;;;10.10;99.90;;;;;;5014590;28;20111;-83
2023/03/19 03:03:54;;;;;;;15.13;12.10;;;10.10;99.90;;;;;;5027020;28;20033;-82
2023/03/19 03:06:20;;;;;;;14.10;12.02;;;10.10;99.90;;;;;;5041037;28;20381;-82
2023/03/19 03:08:46;;;;;;;13.85;10.70;;;10.00;99.90;;;;;;5024325;28;20041;-81
2023/03/19 03:11:11;;;;;;;13.55;11.05;;;10.00;99.90;;;;;;5035788;28;20378;-82
2023/03/19 03:13:37;;;;;;;13.48;10.90;;;10.00;99.90;;;;;;5023178;28;20462;-82
2023/03/19 03:16:03;;;;;;;13.43;9.85;;;10.00;99.90;;;;;;5025399;28;20412;-83
2023/03/19 03:18:30;;;;;;;15.45;11.02;;;10.00;99.90;;;;;;5021269;28;20095;-83
2023/03/19 03:20:55;;;;;;;12.32;9.80;;;10.00;99.90;;;;;;5022109;28;20128;-83
2023/03/19 03:23:21;;;;;;;12.18;10.52;;;10.00;99.90;;;;;;5021737;28;20172;-83
2023/03/19 03:25:50;;;;;;;12.18;9.82;;;10.00;99.90;;;;;;5024659;28;20092;-82
2023/03/19 03:28:16;;;;;;;13.70;10.43;;;10.00;99.90;;;;;;5002639;28;20054;-82
2023/03/19 03:30:42;;;;;;;13.15;10.13;;;10.00;99.90;;;;;;5022053;28;20045;-81
2023/03/19 03:33:08;;;;;;;13.55;10.07;;;10.00;99.90;;;;;;5020197;28;20075;-81
2023/03/19 03:35:34;;;;;;;14.00;10.50;;;10.00;99.90;;;;;;5024624;28;20106;-82
2023/03/19 03:38:01;;;;;;;12.65;9.15;;;9.90;99.90;;;;;;5007064;28;20393;-81
2023/03/19 03:40:27;;;;;;;10.98;8.07;;;9.90;99.90;;;;;;5025862;28;20064;-82
2023/03/19 03:42:52;;;;;;;11.25;8.38;;;10.00;99.90;;;;;;5043948;28;20045;-83
2023/03/19 03:45:18;;;;;;;10.25;7.60;;;10.00;99.90;;;;;;5011510;28;20056;-83
2023/03/19 03:47:44;;;;;;;9.43;7.25;;;10.00;99.90;;;;;;5012371;28;20048;-82
2023/03/19 03:50:11;;;;;;;10.23;7.88;;;9.90;99.90;;;;;;5032205;28;20045;-82
2023/03/19 03:52:37;;;;;;;10.38;7.53;;;9.90;99.90;;;;;;5024031;28;20056;-83
2023/03/19 03:55:04;;;;;;;10.75;7.57;;;9.80;99.90;;;;;;5024665;28;20117;-83
2023/03/19 03:57:30;;;;;;;9.50;6.90;;;9.80;99.90;;;;;;5024700;28;20053;-82
2023/03/19 03:59:55;;;;;;;11.18;7.60;;;9.80;99.90;;;;;;5041483;28;20037;-82
2023/03/19 04:02:22;;;;;;;9.20;6.60;;;9.80;99.90;;;;;;5022859;28;20473;-82
2023/03/19 04:04:47;;;;;;;9.48;6.95;;;9.70;99.90;;;;;;5024345;28;20033;-82
2023/03/19 04:07:13;;;;;;;9.10;7.07;;;9.70;99.90;;;;;;5042943;28;20040;-83
2023/03/19 04:09:39;;;;;;;8.52;6.55;;;9.60;99.90;;;;;;5024713;28;20052;-83
2023/03/19 04:12:05;;;;;;;8.75;6.47;;;9.60;99.90;;;;;;5006727;28;20397;-83
2023/03/19 04:14:31;;;;;;;8.90;6.85;;;9.50;99.90;;;;;;5024112;28;20080;-83
2023/03/19 04:16:56;;;;;;;8.38;6.25;;;9.50;99.90;;;;;;5022117;28;20045;-83
2023/03/19 04:19:22;;;;;;;9.20;6.07;;;9.50;99.90;;;;;;5012961;28;20045;-83
2023/03/19 04:21:48;;;;;;;8.57;6.38;;;9.40;99.90;;;;;;5038784;28;20432;-82
2023/03/19 04:24:14;;;;;;;9.35;6.28;;;9.50;99.90;;;;;;5019134;28;20038;-82
2023/03/19 04:26:39;;;;;;;8.95;6.50;;;9.50;99.90;;;;;;5026172;28;20049;-81
2023/03/19 04:29:07;;;;;;;10.00;6.60;;;9.50;99.90;;;;;;5018683;28;20053;-82
2023/03/19 04:31:33;;;;;;;9.20;6.60;;;9.50;99.90;;;;;;5037392;28;20137;-81
2023/03/19 04:33:59;;;;;;;8.77;6.00;;;9.50;99.90;;;;;;5038445;28;20136;-81
2023/03/19 04:36:25;;;;;;;9.32;6.15;;;9.60;99.90;;;;;;5018223;28;20049;-81
2023/03/19 04:38:51;;;;;;;8.88;6.30;;;9.60;99.90;;;;;;5022935;28;20049;-81
2023/03/19 04:41:17;;;;;;;9.00;6.10;;;9.60;99.90;;;;;;5016769;28;20114;-81
2023/03/19 04:43:42;;;;;;;8.55;5.95;;;9.60;99.90;;;;;;5027273;28;20046;-81
2023/03/19 04:46:08;;;;;;;8.65;6.28;;;9.60;99.90;;;;;;5017966;28;20056;-82
2023/03/19 04:48:34;;;;;;;9.23;6.85;;;9.70;99.90;;;;;;5024579;28;20111;-82
2023/03/19 04:51:03;;;;;;;9.15;6.00;;;9.60;99.90;;;;;;5004030;28;20053;-82
2023/03/19 04:53:29;;;;;;;8.95;6.22;;;9.60;99.90;;;;;;5027618;28;20559;-81
2023/03/19 04:55:55;;;;;;;10.00;6.10;;;9.60;99.90;;;;;;5043436;28;20049;-82
2023/03/19 04:58:21;;;;;;;10.02;6.95;;;9.70;99.90;;;;;;5025558;28;20115;-82
2023/03/19 05:00:47;;;;;;;9.07;6.20;;;9.70;99.90;;;;;;5024031;28;20120;-81
2023/03/19 05:03:14;;;;;;;8.27;6.03;;;9.60;99.90;;;;;;5043440;28;20053;-82
2023/03/19 05:05:40;;;;;;;8.88;6.63;;;9.70;99.90;;;;;;5025719;28;20063;-82
2023/03/19 05:08:07;;;;;;;8.45;5.75;;;9.70;99.90;;;;;;5018543;28;20049;-81
2023/03/19 05:10:34;;;;;;;8.60;6.13;;;9.70;99.90;;;;;;5039030;28;20050;-81
2023/03/19 05:13:01;;;;;;;8.43;6.57;;;9.70;99.90;;;;;;5024512;28;20080;-81
2023/03/19 05:15:26;;;;;;;8.10;6.40;;;9.70;99.90;;;;;;5024735;28;20045;-81
2023/03/19 05:17:52;;;;;;;8.85;6.90;;;9.60;99.90;;;;;;5036772;28;20111;-81
2023/03/19 05:20:18;;;;;;;10.23;7.40;;;9.60;99.90;;;;;;5030793;28;20160;-82
2023/03/19 05:22:45;;;;;;;9.55;7.10;;;9.60;99.90;;;;;;5023831;28;20041;-82
2023/03/19 05:25:12;;;;;;;10.40;6.82;;;9.50;99.90;;;;;;5015170;28;20481;-82
2023/03/19 05:27:38;;;;;;;9.02;6.72;;;9.50;99.90;;;;;;5041866;28;20397;-82
2023/03/19 05:30:05;;;;;;;9.05;7.07;;;9.50;99.90;;;;;;5018444;28;20046;-82
2023/03/19 05:32:31;;;;;;;9.77;7.30;;;9.50;99.90;;;;;;5016546;28;20521;-82
2023/03/19 05:34:57;;;;;;;9.60;6.97;;;9.40;99.90;;;;;;5014311;28;20506;-82
2023/03/19 05:37:23;;;;;;;9.52;7.00;;;9.40;99.90;;;;;;5022332;28;20053;-82
2023/03/19 05:39:50;;;;;;;10.00;7.40;;;9.50;99.90;;;;;;5037777;28;20041;-82
2023/03/19 05:42:16;;;;;;;10.63;8.07;;;9.40;99.90;;;;;;5004050;28;20042;-82
2023/03/19 05:44:41;;;;;;;9.38;7.10;;;9.40;99.90;;;;;;5022893;28;20046;-82
2023/03/19 05:47:10;;;;;;;10.70;7.38;;;9.30;99.90;;;;;;5024638;28;20045;-82
2023/03/19 05:49:36;;;;;;;11.13;8.23;;;9.30;99.90;;;;;;5019353;28;20053;-81
2023/03/19 05:52:01;;;;;;;11.93;8.30;;;9.30;99.90;;;;;;5016372;28;20534;-82
2023/03/19 05:54:27;;;;;;;10.43;7.72;;;9.30;99.90;;;;;;5021739;28;20128;-82
2023/03/19 05:56:53;;;;;;;11.20;8.40;;;9.30;99.90;;;;;;5023011;28;20049;-82
2023/03/19 05:59:18;;;;;;;12.80;8.73;;;9.30;99.90;;;;;;5026411;28;20045;-82
2023/03/19 06:01:44;;;;;;;11.82;9.27;;;9.30;99.90;;;;;;5023620;28;20049;-82
2023/03/19 06:04:10;;;;;;;10.57;8.75;;;9.30;99.90;;;;;;5035438;28;20144;-82
2023/03/19 06:06:36;;;;;;;13.82;9.27;;;9.40;99.90;;;;;;5041500;28;20374;-82
2023/03/19 06:09:02;;;;;;;11.77;8.68;;;9.40;99.90;;;;;;5024989;28;20478;-82
2023/03/19 06:11:28;;;;;;;10.93;8.30;;;9.40;99.90;;;;;;5022619;28;20505;-82
2023/03/19 06:13:54;;;;;;;11.93;9.35;;;9.40;99.90;;;;;;5023438;28;20106;-82
2023/03/19 06:16:20;;;;;;;13.18;9.05;;;9.50;99.90;;;;;;5024106;28;20507;-82
2023/03/19 06:18:46;;;;;;;13.65;9.98;;;9.40;99.90;;;;;;5021384;28;20056;-82
2023/03/19 06:21:12;;;;;;;11.10;8.68;;;9.40;99.90;;;;;;5045242;28;20113;-81
2023/03/19 06:23:37;;;;;;;11.70;8.82;;;9.40;99.90;;;;;;5022574;28;20045;-82
2023/03/19 06:26:04;;;;;;;10.50;8.68;;;9.30;99.90;;;;;;5022723;28;20059;-81
2023/03/19 06:28:31;;;;;;;13.35;9.82;;;9.20;99.90;;;;;;5025358;28;20049;-82
2023/03/19 06:30:57;;;;;;;11.95;9.60;;;9.20;99.90;;;;;;5024223;28;20050;-82
2023/03/19 06:33:26;;;;;;;13.30;9.43;;;9.20;99.90;;;;;;5040930;28;20056;-82
2023/03/19 06:35:52;;;;;;;14.40;10.40;;;9.20;99.90;;;;;;5023863;28;20056;-82
2023/03/19 06:38:18;;;;;;;13.15;10.25;;;9.20;99.90;;;;;;5025594;28;20393;-81
2023/03/19 06:40:44;;;;;;;13.85;10.98;;;9.20;99.90;;;;;;5007417;28;20055;-82
2023/03/19 06:43:09;;;;;;;14.95;11.00;;;9.20;99.90;;;;;;5046222;28;20123;-82
2023/03/19 06:45:35;;;;;;;14.13;10.93;;;9.30;99.90;;;;;;5039302;28;20401;-81
2023/03/19 06:48:01;;;;;;;12.95;10.45;;;9.30;99.90;;;;;;5038922;28;20478;-81
2023/03/19 06:50:27;;;;;;;13.77;10.70;;;9.40;99.90;;;;;;5037723;28;20045;-82
2023/03/19 06:52:52;;;;;;;13.20;10.82;;;9.50;99.90;;;;;;5020714;28;20040;-82
2023/03/19 06:55:19;;;;;;;14.05;10.50;;;9.60;99.90;;;;;;4998206;28;20390;-82
2023/03/19 06:57:52;;;;;;;13.02;10.30;;;9.60;99.90;;;;;;5038997;28;20314;-82
2023/03/19 07:00:18;;;;;;;12.88;10.32;;;9.70;99.90;;;;;;5003040;28;20067;-82
2023/03/19 07:02:44;;;;;;;15.07;10.15;;;9.80;99.90;;;;;;5041143;28;20045;-82
2023/03/19 07:05:10;;;;;;;13.52;10.65;;;9.80;99.90;;;;;;5019928;28;20045;-82
2023/03/19 07:07:36;;;;;;;14.02;11.63;;;9.90;99.90;;;;;;5023345;28;20127;-82
2023/03/19 07:10:02;;;;;;;12.73;10.15;;;9.90;99.90;;;;;;5039104;28;20050;-82
2023/03/19 07:12:28;;;;;;;12.85;10.48;;;10.00;99.90;;;;;;5021250;28;20049;-82
2023/03/19 07:14:57;;;;;;;12.50;10.25;;;10.00;99.90;;;;;;5009180;28;20091;-82
2023/03/19 07:17:24;;;;;;;14.98;11.40;;;10.10;99.90;;;;;;5023715;28;20049;-82
2023/03/19 07:19:50;;;;;;;14.38;10.95;;;10.10;99.90;;;;;;5022079;28;20080;-82
2023/03/19 07:22:16;;;;;;;12.90;10.82;;;10.10;99.90;;;;;;5015957;28;20107;-82
2023/03/19 07:24:42;;;;;;;14.80;12.35;;;10.20;99.90;;;;;;5019085;28;20044;-82
2023/03/19 07:27:08;;;;;;;14.45;12.25;;;10.20;99.90;;;;;;5020913;28;20041;-82
2023/03/19 07:29:35;;;;;;;15.50;12.80;;;10.20;99.90;;;;;;5019524;28;20060;-82
2023/03/19 07:32:00;;;;;;;15.77;12.40;;;10.20;99.90;;;;;;5019962;28;20072;-82
2023/03/19 07:34:26;;;;;;;15.40;12.02;;;10.20;99.90;;;;;;5033473;28;20477;-81
2023/03/19 07:36:52;;;;;;;14.63;11.90;;;10.20;99.90;;;;;;5027526;28;20037;-81
2023/03/19 07:39:18;;;;;;;15.68;12.40;;;10.20;99.90;;;;;;5037547;28;20060;-82
2023/03/19 07:41:47;;;;;;;15.98;12.80;;;10.20;99.90;;;;;;5005745;28;20049;-82
2023/03/19 07:44:14;;;;;;;15.95;12.63;;;10.30;99.90;;;;;;5015864;28;20045;-82
2023/03/19 07:46:39;;;;;;;15.02;12.75;;;10.30;99.90;;;;;;5017005;28;20505;-82
2023/03/19 07:49:06;;;;;;;15.77;12.90;;;10.30;99.90;;;;;;5016775;28;20049;-82
2023/03/19 07:51:32;;;;;;;14.85;12.95;;;10.50;99.90;;;;;;5007464;28;20788;-82
2023/03/19 07:53:58;;;;;;;16.88;13.40;;;10.60;99.90;;;;;;5017408;28;20036;-82
2023/03/19 07:56:25;;;;;;;16.45;13.38;;;10.70;99.90;;;;;;5016128;28;20419;-82
2023/03/19 07:58:50;;;;;;;14.82;13.23;;;10.80;99.90;;;;;;5024866;28;20478;-82
2023/03/19 08:01:17;;;;;;;16.20;14.10;;;11.00;99.90;;;;;;5004967;28;20037;-81
2023/03/19 08:03:42;;;;;;;17.83;14.82;;;11.10;99.90;;;;;;5004662;28;20045;-82
2023/03/19 08:06:08;;;;;;;18.08;14.77;;;11.20;99.90;;;;;;5023286;28;20053;-82
2023/03/19 08:08:35;;;;;;;18.75;15.07;;;11.20;99.90;;;;;;5018930;28;20449;-81
2023/03/19 08:11:01;;;;;;;17.23;14.75;;;11.20;99.90;;;;;;5013371;28;20621;-82
2023/03/19 08:13:28;;;;;;;17.70;14.80;;;11.40;99.90;;;;;;5012951;28;20513;-82
2023/03/19 08:15:55;;;;;;;16.25;14.15;;;12.00;99.90;;;;;;5021685;28;20041;-81
2023/03/19 08:18:21;;;;;;;18.15;15.60;;;11.50;99.90;;;;;;5020369;28;20405;-82
2023/03/19 08:20:47;;;;;;;19.13;15.85;;;11.50;99.90;;;;;;5023798;28;20470;-81
2023/03/19 08:23:13;;;;;;;17.63;14.63;;;11.60;99.90;;;;;;4995113;28;20045;-81
2023/03/19 08:25:39;;;;;;;19.58;15.98;;;11.60;99.90;;;;;;5041370;28;20120;-81
2023/03/19 08:28:05;;;;;;;18.65;14.55;;;11.70;99.90;;;;;;5029687;28;20140;-81
2023/03/19 08:30:31;;;;;;;16.50;13.32;;;11.80;99.90;;;;;;5029151;28;20056;-81
2023/03/19 08:32:56;;;;;;;18.13;14.23;;;11.80;99.90;;;;;;5045420;28;20116;-81
2023/03/19 08:35:25;;;;;;;17.67;14.15;;;11.90;99.90;;;;;;5046339;28;20056;-80
2023/03/19 08:37:52;;;;;;;17.10;14.38;;;12.00;99.90;;;;;;5029716;28;20420;-80
2023/03/19 08:40:18;;;;;;;17.80;14.38;;;12.00;99.90;;;;;;5027888;28;20049;-80
2023/03/19 08:42:44;;;;;;;17.77;14.93;;;12.00;99.90;;;;;;5032140;28;20040;-81
2023/03/19 08:45:11;;;;;;;16.98;14.48;;;12.10;99.90;;;;;;5029736;28;20047;-81
2023/03/19 08:47:37;;;;;;;16.88;14.43;;;12.00;99.90;;;;;;5030161;28;20052;-81
2023/03/19 08:50:04;;;;;;;17.75;14.82;;;12.00;99.90;;;;;;5025249;28;20396;-81
2023/03/19 08:52:30;;;;;;;18.05;15.35;;;12.00;99.90;;;;;;5032824;28;20069;-80
2023/03/19 08:54:55;;;;;;;17.52;14.18;;;12.10;99.90;;;;;;5027883;28;20564;-81
2023/03/19 08:57:21;;;;;;;18.13;14.93;;;12.20;99.90;;;;;;5022632;28;20049;-80
2023/03/19 08:59:47;;;;;;;16.88;13.82;;;12.30;99.90;;;;;;5026962;28;20088;-80
2023/03/19 09:02:13;;;;;;;16.83;13.95;;;12.40;99.90;;;;;;5044564;28;20075;-80
2023/03/19 09:04:42;;;;;;;16.88;14.13;;;12.50;99.90;;;;;;5029994;28;20041;-80
2023/03/19 09:07:12;;;;;;;16.33;13.55;;;12.50;99.90;;;;;;5030510;28;20045;-80
2023/03/19 09:09:39;;;;;;;18.27;15.18;;;12.60;99.90;;;;;;5048257;28;20061;-81
2023/03/19 09:12:06;;;;;;;17.42;14.85;;;12.50;99.90;;;;;;5027386;28;20135;-80
2023/03/19 09:14:33;;;;;;;18.05;14.68;;;12.50;99.90;;;;;;5028919;28;20062;-80
2023/03/19 09:16:58;;;;;;;16.95;13.95;;;12.60;99.90;;;;;;5026557;28;20389;-81
2023/03/19 09:19:24;;;;;;;17.45;13.90;;;12.90;99.90;;;;;;5019168;28;20045;-80
2023/03/19 09:21:50;;;;;;;15.10;13.00;;;13.20;99.90;;;;;;5029432;28;20107;-80
2023/03/19 09:24:17;;;;;;;15.70;13.38;;;13.60;99.90;;;;;;5027770;28;20053;-80
2023/03/19 09:26:44;;;;;;;13.90;11.75;;;14.00;99.90;;;;;;5044708;28;20047;-79
2023/03/19 09:29:09;;;;;;;13.70;11.25;;;14.00;99.90;;;;;;5027082;28;20465;-79
2023/03/19 09:31:36;;;;;;;14.05;11.77;;;13.90;99.90;;;;;;5022957;28;20072;-80
2023/03/19 09:34:02;;;;;;;13.15;11.32;;;13.70;99.90;;;;;;5023942;28;20473;-80
2023/03/19 09:36:28;;;;;;;13.82;11.40;;;13.50;99.90;;;;;;5025244;28;20044;-80
2023/03/19 09:38:54;;;;;;;12.73;11.25;;;13.40;99.90;;;;;;5041089;28;20424;-80
2023/03/19 09:41:42;;;;;;;12.80;9.95;;;13.30;99.90;;;;;;5042482;28;20734;-79
2023/03/19 09:44:20;;;;;;;12.30;10.40;;;13.20;99.90;;;;;;5040286;28;20042;-79
2023/03/19 09:46:57;;;;;;;12.73;9.88;;;13.20;99.90;;;;;;5026572;28;20146;-80
2023/03/19 09:49:23;;;;;;;12.05;9.73;;;13.30;99.90;;;;;;5015517;28;20107;-80
2023/03/19 09:51:57;;;;;;;11.48;9.52;;;13.40;99.90;;;;;;5022896;28;20053;-80
2023/03/19 09:54:35;;;;;;;12.27;9.50;;;13.50;99.90;;;;;;5026472;28;20049;-80
2023/03/19 09:57:01;;;;;;;13.25;10.48;;;13.40;99.90;;;;;;5024081;28;20041;-81
2023/03/19 13:05:43;;;;;;;12.57;9.05;;;15.70;99.90;;;;;;5132061;27;1311514;-78
2023/03/19 13:08:15;;;;;;;12.77;10.23;;;15.90;99.90;;;;;;5141923;27;20058;-79
2023/03/19 13:10:42;;;;;;;12.10;9.45;;;16.00;99.90;;;;;;5142215;27;20393;-79
2023/03/19 13:13:38;;;;;;;12.23;9.52;;;16.10;99.90;;;;;;5137625;27;20070;-77
2023/03/19 13:16:22;;;;;;;12.73;9.88;;;16.10;99.90;;;;;;5119977;27;20052;-79
2023/03/19 13:19:14;;;;;;;12.75;9.57;;;16.20;99.90;;;;;;5141467;27;20046;-78
2023/03/19 13:21:41;;;;;;;12.48;9.98;;;16.30;99.90;;;;;;5154232;27;20054;-79
2023/03/19 13:24:20;;;;;;;12.82;9.48;;;16.40;99.90;;;;;;5137863;27;20119;-77
2023/03/19 13:26:47;;;;;;;12.35;9.88;;;16.50;99.90;;;;;;5122385;27;20070;-78
2023/03/19 13:29:20;;;;;;;12.30;9.93;;;16.60;99.90;;;;;;5128013;27;20474;-78
2023/03/19 13:31:47;;;;;;;13.32;10.65;;;16.60;99.90;;;;;;5121142;27;20482;-79
2023/03/19 13:34:15;;;;;;;14.10;9.85;;;16.40;99.90;;;;;;5124669;27;20385;-80
2023/03/19 13:36:44;;;;;;;13.57;10.55;;;16.20;99.90;;;;;;5124759;27;20045;-79
2023/03/19 13:39:17;;;;;;;12.85;10.30;;;16.10;99.90;;;;;;5127054;27;20049;-79
2023/03/19 13:41:42;;;;;;;13.82;10.65;;;16.20;99.90;;;;;;5119063;27;20551;-78
2023/03/19 13:44:20;;;;;;;13.23;10.07;;;16.10;99.90;;;;;;5124452;27;20039;-79
2023/03/19 13:46:47;;;;;;;14.23;10.38;;;16.10;99.90;;;;;;5127456;27;20476;-78
2023/03/19 13:49:18;;;;;;;12.90;10.32;;;16.10;99.90;;;;;;5126407;27;20047;-77
2023/03/19 13:51:47;;;;;;;13.20;10.18;;;16.10;99.90;;;;;;5123114;27;20061;-79
2023/03/19 13:54:22;;;;;;;12.35;10.23;;;16.20;99.90;;;;;;5122004;27;20039;-78
2023/03/19 13:57:07;;;;;;;12.65;9.80;;;16.30;99.90;;;;;;5128601;27;20469;-79
2023/03/19 13:59:34;;;;;;;12.85;9.85;;;16.50;99.90;;;;;;5123925;27;20039;-78
2023/03/19 14:02:25;;;;;;;12.02;9.38;;;16.60;99.90;;;;;;5125744;27;20044;-79
2023/03/19 14:05:15;;;;;;;11.95;10.10;;;16.60;99.90;;;;;;5128180;27;20061;-79
2023/03/19 14:07:48;;;;;;;13.57;11.10;;;16.30;99.90;;;;;;5116134;27;20043;-79
2023/03/19 14:10:24;;;;;;;14.30;10.88;;;16.20;99.90;;;;;;5128636;27;20051;-78
2023/03/19 14:12:51;;;;;;;15.02;11.52;;;16.10;99.90;;;;;;5106555;27;20067;-79
2023/03/19 14:15:26;;;;;;;13.38;11.18;;;16.00;99.90;;;;;;5104963;28;20093;-79
2023/03/19 14:17:52;;;;;;;15.27;11.73;;;15.80;99.90;;;;;;5097697;27;20059;-79
2023/03/19 14:20:18;;;;;;;14.52;11.30;;;15.80;99.90;;;;;;5079506;27;20100;-79
2023/03/19 14:23:03;;;;;;;14.10;11.30;;;15.60;99.90;;;;;;5112334;27;20071;-78
2023/03/19 14:26:05;;;;;;;15.95;11.80;;;15.60;99.90;;;;;;5125476;27;20047;-75
2023/03/19 14:28:43;;;;;;;14.48;11.88;;;15.50;99.90;;;;;;5091806;27;20046;-80
2023/03/19 14:32:00;;;;;;;14.60;11.90;;;15.50;99.90;;;;;;5104796;27;20386;-80
2023/03/19 14:34:33;;;;;;;16.05;12.63;;;15.60;99.90;;;;;;5076646;27;20051;-78
2023/03/19 14:37:20;;;;;;;16.15;12.73;;;15.70;99.90;;;;;;5129506;27;20046;-80
2023/03/19 14:40:26;;;;;;;16.70;13.27;;;15.70;99.90;;;;;;5108162;27;20045;-80
2023/03/19 14:43:32;;;;;;;16.70;13.15;;;15.60;99.90;;;;;;5107289;27;20050;-83
2023/03/19 14:46:03;;;;;;;14.88;12.63;;;15.00;99.90;;;;;;5107019;27;20042;-83
2023/03/19 14:48:54;;;;;;;14.45;12.13;;;15.50;99.90;;;;;;5107567;27;20408;-82
2023/03/19 14:51:41;;;;;;;16.58;12.95;;;15.50;99.90;;;;;;5132685;27;20039;-84
2023/03/19 14:54:26;;;;;;;16.27;12.23;;;15.50;99.90;;;;;;5093413;27;20462;-84
2023/03/19 14:56:55;;;;;;;16.42;13.68;;;15.50;99.90;;;;;;5092014;27;20042;-82
2023/03/19 14:59:21;;;;;;;16.48;13.48;;;15.60;99.90;;;;;;5094464;27;20031;-82
2023/03/19 15:01:52;;;;;;;17.55;13.55;;;15.60;99.90;;;;;;5108251;27;20047;-84
2023/03/19 15:04:22;;;;;;;17.30;13.30;;;15.50;99.90;;;;;;5093167;27;20048;-84
2023/03/19 15:06:57;;;;;;;17.40;14.15;;;15.50;99.90;;;;;;5114008;27;20042;-83
2023/03/19 15:09:32;;;;;;;17.58;13.88;;;15.40;99.90;;;;;;5124363;27;20417;-83
2023/03/19 15:12:43;;;;;;;17.80;14.13;;;15.40;99.90;;;;;;5089507;27;20050;-83
2023/03/19 15:15:25;;;;;;;19.23;14.50;;;15.30;99.90;;;;;;5122269;27;20043;-83
2023/03/19 15:18:00;;;;;;;18.92;14.35;;;15.30;99.90;;;;;;5113172;27;20312;-83
2023/03/19 15:20:29;;;;;;;18.40;14.32;;;15.20;99.90;;;;;;5109939;27;20347;-83
2023/03/19 15:23:00;;;;;;;17.17;13.98;;;15.20;99.90;;;;;;5110991;27;20046;-85
2023/03/19 15:25:26;;;;;;;18.10;14.32;;;15.10;99.90;;;;;;5112019;27;20043;-83
2023/03/19 15:28:08;;;;;;;17.35;14.02;;;15.10;99.90;;;;;;5129133;27;20055;-84
2023/03/19 15:30:34;;;;;;;;;;;15.10;99.90;;;;;;5109712;27;20471;-85
2023/03/19 15:33:00;;;;;;;17.25;14.05;;;15.10;99.90;;;;;;5123417;27;19926;-85
2023/03/19 15:35:32;;;;;;;17.40;13.98;;;15.10;99.90;;;;;;5107019;27;20058;-83
2023/03/19 15:38:00;;;;;;;19.38;14.50;;;14.90;99.90;;;;;;5106500;27;20374;-84
2023/03/19 15:40:29;;;;;;;17.38;14.38;;;14.80;99.90;;;;;;5112210;27;20130;-84
2023/03/19 15:42:57;;;;;;;18.80;14.77;;;14.70;99.90;;;;;;5108347;27;20483;-84
2023/03/19 15:45:25;;;;;;;19.38;15.27;;;14.60;99.90;;;;;;5105826;27;20035;-85
2023/03/19 15:48:10;;;;;;;20.67;17.02;;;14.40;99.90;;;;;;5092259;27;20053;-79